Atwood, CA

6:24 AM PDT on September 21, 2014 (GMT -0700)
SW Yorba Linda/NW Anaheim Hills | Change Station
CLOSE
Current Station
Personal Weather Station
Location: Yorba Linda, CA
Elevation: 278 ft
Nearby Weather Stations

Elev 278 ft 33.87 °N, 117.80 °W | Updated 20 seconds ago

Overcast
Overcast
68.7 °F
Feels Like 68.7 °F
N
0.0
Wind Variable Wind from SSW
Gusts 0.0 mph

Today
High -- | Low -- °F
--% Chance of Precip.
Yesterday
High -- | Low -- °F
Precip. -- in
6:38 AM 6:49 PM
Waning Crescent, 7% visible
Pressure 29.94 in
Visibility 10.0 miles
Clouds Overcast 2000 ft
Dew Point 64 °F
Humidity 85%
Rainfall 0.00 in
Snow Depth 0 in , 1 in , 0 in
UV 0 out of 12
Pollen 7.20 out of 12
Ozone Good
PM2.5 Good
Flu Activity Not available.
METAR KFUL 211253Z 00000KT 10SM OVC020 21/16 A2994 RMK AO2 SLP138 T02110161

More Conditions Fewer Conditions

Pressure 29.94 in
Visibility 10.0 miles
Clouds Overcast 2000 ft
Dew Point 64 °F
Humidity 85%
Rainfall 0.00 in
Snow Depth 0 in , 1 in , 0 in
UV 0 out of 12
Pollen 7.20 out of 12
Ozone Good
PM2.5 Good
Flu Activity Not available.
METAR KFUL 211253Z 00000KT 10SM OVC020 21/16 A2994 RMK AO2 SLP138 T02110161

More Conditions Fewer Conditions

10-Day Weather Forecast

Almanac

Astronomy

Sep. 21, 2014 Rise Set
Actual Time 6:38 AM PDT 6:49 PM PDT
Civil Twilight 6:13 AM PDT 7:14 PM PDT
Nautical Twilight 5:44 AM PDT 7:43 PM PDT
Astronomical Twilight 5:15 AM PDT 8:12 PM PDT
Moon 4:21 AM PDT 5:24 PM PDT
Length of Visible Light 13h 00m
Length of Day
12h 10m
Tomorrow will be 2m 6s shorter.
Waning Crescent, 7% of the Moon is Illuminated
Today
Waning Crescent
Sep 24
New
Oct 1
First Quarter
Oct 8
Full
Oct 15
Last Quarter

Today's Extremes

State Highs State Lows

Community

WunderPhotos

Upload Photos

1,755,138 photos uploaded!

WunderBlogs® & News

Nearby

Air Quality

  Air Quality AQ Index Pollutant
Yesterday Good
PM10
Yesterday Good
OZONE
Current Good
PM2.5
Current Good
OZONE
Sunday Good
OZONE
Sunday Good
PM10
Sunday Good
CO
Sunday Good
NO2

Snow Depth

Station Depth Elevation
Adin Mountain 0 in 6200 ft
Echo Peak 1 in 7800 ft
Heavenly Valley 0 in 8850 ft
Hagan's Meadow 0 in 8000 ft
Monitor Pass 1 in 8350 ft

Earthquake Activity

City Distance Mag. Time & Date
Aguanga, California 65 miles 2.5 1:38 AM PDT
2014-09-19
Minimum magnitude displayed is 2.5.

Coastal Water Temperatures

Place Temperature
Santa Monica Pier 68.0 °F
Los Angeles, CA 66.9 °F
La Jolla, CA 71.1 °F

Nearby Weather Stations